Time;durP1;ratioP1;P1;durP2;ratioP2;P2;SDS_P1;SDS_P2;PMS_P1;PMS_P2;Temp;Humidity;BMP_temperature;BMP_pressure;BME280_temperature;BME280_humidity;BME280_pressure;Samples;Min_cycle;Max_cycle;Signal;HPM_P1;HPM_P2
2021/11/18 00:00:49;;;;;;;;;43.50;35.25;;;;;9.51;91.88;102608.63;5071046;27;45321;-70
2021/11/18 00:03:16;;;;;;;;;42.00;36.25;;;;;9.49;91.63;102610.34;5064572;28;45460;-71
2021/11/18 00:05:42;;;;;;;;;40.75;35.75;;;;;9.47;91.79;102604.28;5070358;28;46449;-69
2021/11/18 00:08:08;;;;;;;;;37.00;34.75;;;;;9.44;91.89;102606.00;5074246;28;45771;-71
2021/11/18 00:10:55;;;;;;;;;32.50;28.25;;;;;9.40;91.73;102600.75;5070714;28;45441;-71
2021/11/18 00:13:26;;;;;;;;;44.50;35.75;;;;;9.35;92.05;102603.31;5066759;28;45495;-71
2021/11/18 00:15:52;;;;;;;;;38.75;34.00;;;;;9.34;92.33;102609.38;5077863;28;48348;-71
2021/11/18 00:18:24;;;;;;;;;38.75;33.75;;;;;9.34;92.17;102609.38;5068724;28;45286;-70
2021/11/18 00:21:05;;;;;;;;;44.00;34.25;;;;;9.30;92.54;102611.94;5065597;27;45270;-69
2021/11/18 00:23:42;;;;;;;;;42.50;35.75;;;;;9.24;92.65;102610.16;5067845;28;45335;-69
2021/11/18 00:26:08;;;;;;;;;40.00;29.50;;;;;9.21;92.32;102607.56;5066854;28;46319;-69
2021/11/18 00:28:34;;;;;;;;;45.50;32.50;;;;;9.22;92.34;102611.00;5070383;27;45384;-72
2021/11/18 00:31:00;;;;;;;;;39.25;32.50;;;;;9.22;92.19;102603.22;5074017;28;45295;-73
2021/11/18 00:33:26;;;;;;;;;36.00;29.25;;;;;9.18;92.88;102591.94;5070900;28;45452;-73
2021/11/18 00:35:52;;;;;;;;;34.50;31.25;;;;;9.15;92.81;102594.50;5066823;27;45418;-72
2021/11/18 00:38:20;;;;;;;;;37.75;30.75;;;;;9.16;93.03;102583.28;5070170;27;45232;-73
2021/11/18 00:40:52;;;;;;;;;36.75;30.00;;;;;9.14;92.67;102585.00;5073810;28;45425;-73
2021/11/18 00:43:20;;;;;;;;;35.00;28.50;;;;;9.11;93.10;102580.66;5072106;28;45276;-73
2021/11/18 00:45:47;;;;;;;;;33.25;29.00;;;;;9.08;93.37;102564.19;5066762;28;45300;-72
2021/11/18 00:48:13;;;;;;;;;35.25;29.75;;;;;9.08;92.89;102569.38;5075759;28;45387;-72
2021/11/18 00:50:43;;;;;;;;;38.50;31.50;;;;;9.07;93.47;102570.25;5074811;27;45314;-73
2021/11/18 00:53:09;;;;;;;;;32.00;27.50;;;;;9.02;94.28;102567.63;5073390;28;45357;-73
2021/11/18 00:55:34;;;;;;;;;31.50;27.00;;;;;9.00;93.55;102563.25;5066379;27;46117;-73
2021/11/18 00:58:00;;;;;;;;;31.50;26.75;;;;;9.00;93.63;102561.53;5067337;27;45318;-73
2021/11/18 01:00:29;;;;;;;;;36.25;28.50;;;;;9.01;93.20;102570.16;5073752;28;45945;-72
2021/11/18 01:02:56;;;;;;;;;30.50;29.50;;;;;9.01;93.61;102573.66;5073407;28;46186;-72
2021/11/18 01:05:25;;;;;;;;;36.75;30.75;;;;;9.00;93.28;102569.31;5067185;28;45421;-72
2021/11/18 01:07:54;;;;;;;;;32.00;26.00;;;;;8.98;93.56;102571.03;5067458;27;45932;-71
2021/11/18 01:10:20;;;;;;;;;31.50;26.50;;;;;8.96;93.16;102579.66;5092569;27;45400;-71
2021/11/18 01:12:45;;;;;;;;;28.00;24.25;;;;;8.95;93.26;102585.69;5066291;28;45260;-71
2021/11/18 01:15:16;;;;;;;;;31.50;24.50;;;;;8.91;93.38;102592.56;5078804;28;47372;-72
2021/11/18 01:17:42;;;;;;;;;35.00;23.75;;;;;8.88;94.04;102589.09;5077690;27;45339;-72
2021/11/18 01:20:09;;;;;;;;;32.75;27.50;;;;;8.86;93.69;102598.59;5062157;28;45311;-69
2021/11/18 01:22:35;;;;;;;;;35.00;26.75;;;;;8.81;93.52;102609.78;5073107;28;45235;-72
2021/11/18 01:25:00;;;;;;;;;36.50;28.00;;;;;8.78;93.36;102604.53;5075148;28;47778;-72
2021/11/18 01:27:26;;;;;;;;;35.00;30.50;;;;;8.78;93.85;102599.34;5071720;28;45696;-71
2021/11/18 01:29:53;;;;;;;;;44.75;32.75;;;;;8.74;93.92;102595.00;5067655;28;45543;-71
2021/11/18 01:32:18;;;;;;;;;34.25;30.50;;;;;8.71;93.40;102599.28;5066468;28;45358;-72
2021/11/18 01:34:44;;;;;;;;;42.50;33.00;;;;;8.69;94.13;102586.31;5071665;27;45549;-71
2021/11/18 01:37:10;;;;;;;;;38.25;32.00;;;;;8.67;94.06;102584.56;5073154;28;45322;-71
2021/11/18 01:39:35;;;;;;;;;33.75;28.25;;;;;8.67;93.93;102589.75;5067738;28;45339;-71
2021/11/18 01:42:01;;;;;;;;;39.00;36.75;;;;;8.61;93.72;102587.09;5066033;27;45312;-71
2021/11/18 01:44:33;;;;;;;;;36.00;30.00;;;;;8.60;93.90;102606.94;5070369;28;45422;-71
2021/11/18 01:46:59;;;;;;;;;31.00;26.25;;;;;8.59;93.70;102602.63;5087577;27;45464;-70
2021/11/18 01:49:26;;;;;;;;;33.50;30.75;;;;;8.58;93.67;102603.47;5079523;27;45309;-70
2021/11/18 01:51:54;;;;;;;;;41.75;36.25;;;;;8.53;93.78;102611.22;5063495;27;45429;-71
2021/11/18 01:54:24;;;;;;;;;30.75;30.50;;;;;8.53;94.01;102612.94;5068884;28;46548;-70
2021/11/18 01:56:50;;;;;;;;;37.00;30.50;;;;;8.50;93.92;102620.66;5061960;27;45807;-70
2021/11/18 01:59:20;;;;;;;;;42.00;34.50;;;;;8.49;93.65;102621.53;5069718;28;45403;-71
2021/11/18 02:01:50;;;;;;;;;42.50;34.00;;;;;8.46;94.07;102619.78;5077951;28;45551;-71
2021/11/18 02:04:19;;;;;;;;;39.75;33.25;;;;;8.44;94.12;102618.88;5068133;27;47313;-72
2021/11/18 02:06:49;;;;;;;;;47.50;35.00;;;;;8.44;93.78;102618.03;5064251;28;45216;-71
2021/11/18 02:09:18;;;;;;;;;31.50;28.00;;;;;8.41;93.63;102615.38;5066905;27;45358;-68
2021/11/18 02:11:50;;;;;;;;;34.25;34.00;;;;;8.38;94.31;102616.22;5072303;28;45511;-70
2021/11/18 02:14:18;;;;;;;;;37.50;34.50;;;;;8.38;94.07;102612.75;5059482;28;45646;-69
2021/11/18 02:16:46;;;;;;;;;31.00;25.25;;;;;8.36;94.17;102611.88;5071873;27;45457;-69
2021/11/18 02:19:13;;;;;;;;;40.50;32.25;;;;;8.35;94.53;102612.72;5057676;28;45283;-69
2021/11/18 02:21:43;;;;;;;;;36.00;31.75;;;;;8.34;94.38;102617.03;5065981;28;45531;-69
2021/11/18 02:24:23;;;;;;;;;36.00;32.00;;;;;8.34;94.45;102616.16;5065828;27;46549;-69
2021/11/18 02:26:49;;;;;;;;;39.00;34.25;;;;;8.30;94.58;102620.41;5070233;28;45519;-71
2021/11/18 02:29:16;;;;;;;;;30.00;24.50;;;;;8.33;94.16;102622.16;5072560;28;45310;-71
2021/11/18 02:32:05;;;;;;;;;40.50;33.00;;;;;8.32;94.48;102623.00;5067182;28;45485;-72
2021/11/18 02:34:43;;;;;;;;;40.50;31.25;;;;;8.30;94.53;102617.81;5067962;27;45420;-71
2021/11/18 02:37:10;;;;;;;;;31.75;29.25;;;;;8.28;94.14;102622.13;5068978;27;45349;-71
2021/11/18 02:39:36;;;;;;;;;36.50;31.00;;;;;8.23;94.50;102623.78;5074637;27;45335;-71
2021/11/18 02:42:04;;;;;;;;;41.00;34.75;;;;;8.22;94.39;102627.22;5075601;28;45323;-72
2021/11/18 02:44:31;;;;;;;;;38.75;33.25;;;;;8.17;93.74;102623.69;5069434;28;47103;-70
2021/11/18 02:46:57;;;;;;;;;39.00;34.75;;;;;8.14;94.38;102619.34;5068862;27;45286;-70
2021/11/18 02:49:23;;;;;;;;;35.50;32.50;;;;;8.13;94.46;102617.59;5082337;27;45286;-70
2021/11/18 02:51:48;;;;;;;;;33.00;27.75;;;;;8.10;94.63;102614.13;5066769;28;45143;-71
2021/11/18 02:54:14;;;;;;;;;42.25;32.50;;;;;8.06;94.44;102620.09;5070655;28;45443;-71
2021/11/18 02:56:39;;;;;;;;;41.50;36.50;;;;;8.04;95.43;102627.84;5066362;28;45467;-70
2021/11/18 02:59:05;;;;;;;;;47.25;35.50;;;;;8.01;95.13;102632.09;5071043;28;45869;-72
2021/11/18 03:01:34;;;;;;;;;36.25;35.50;;;;;7.98;95.43;102643.28;5066188;27;45506;-71
2021/11/18 03:04:00;;;;;;;;;45.00;37.00;;;;;7.92;95.27;102632.84;5071325;28;46369;-71
2021/11/18 03:06:26;;;;;;;;;44.50;36.25;;;;;7.88;95.28;102633.66;5065465;27;45228;-72
2021/11/18 03:08:53;;;;;;;;;44.50;27.00;;;;;7.86;95.48;102632.78;5070471;28;45255;-72
2021/11/18 03:11:20;;;;;;;;;37.25;32.25;;;;;7.84;95.78;102639.66;5067864;27;45547;-72
2021/11/18 03:13:45;;;;;;;;;39.75;37.25;;;;;7.83;95.76;102648.28;5071926;27;46397;-73
2021/11/18 03:16:12;;;;;;;;;42.50;37.25;;;;;7.84;95.70;102650.00;5074918;28;45306;-72
2021/11/18 03:18:38;;;;;;;;;42.75;35.75;;;;;7.81;95.55;102637.91;5072262;28;45263;-72
2021/11/18 03:21:06;;;;;;;;;49.00;40.00;;;;;7.81;95.41;102648.25;5067677;27;45469;-72
2021/11/18 03:23:32;;;;;;;;;46.75;38.25;;;;;7.82;95.47;102646.53;5093571;27;45262;-72
2021/11/18 03:25:58;;;;;;;;;49.25;37.00;;;;;7.82;95.77;102636.19;5067802;27;45309;-72
2021/11/18 03:28:26;;;;;;;;;37.00;37.00;;;;;7.81;95.65;102644.78;5072935;27;45309;-72
2021/11/18 03:30:53;;;;;;;;;45.25;34.50;;;;;7.81;96.22;102640.50;5074901;28;45465;-72
2021/11/18 03:33:27;;;;;;;;;42.25;31.00;;;;;7.79;95.93;102644.75;5070977;28;46212;-71
2021/11/18 03:35:54;;;;;;;;;41.50;32.25;;;;;7.78;95.69;102650.78;5067693;27;45311;-72
2021/11/18 03:38:22;;;;;;;;;49.25;35.75;;;;;7.76;95.78;102647.28;5070856;27;45551;-72
2021/11/18 03:40:50;;;;;;;;;32.50;30.25;;;;;7.76;95.88;102636.94;5073525;28;45145;-72
2021/11/18 03:43:21;;;;;;;;;43.50;39.75;;;;;7.76;95.96;102638.66;5070367;28;46088;-71
2021/11/18 03:45:49;;;;;;;;;39.75;31.75;;;;;7.75;95.84;102632.63;5064968;27;45375;-68
2021/11/18 03:48:19;;;;;;;;;39.50;31.75;;;;;7.76;95.91;102644.69;5074223;28;45728;-68
2021/11/18 03:50:46;;;;;;;;;41.50;35.25;;;;;7.73;95.76;102652.44;5072278;27;45485;-67
2021/11/18 03:53:12;;;;;;;;;40.50;34.50;;;;;7.72;95.64;102650.69;5071891;28;45564;-67
2021/11/18 03:55:37;;;;;;;;;37.50;33.50;;;;;7.72;95.75;102657.59;5065483;28;45473;-67
2021/11/18 03:58:06;;;;;;;;;37.75;31.00;;;;;7.70;96.09;102667.03;5066410;27;45227;-67
2021/11/18 04:00:33;;;;;;;;;44.50;37.00;;;;;7.65;96.12;102650.59;5073905;27;45348;-72
2021/11/18 04:03:00;;;;;;;;;35.00;29.00;;;;;7.64;96.06;102654.91;5088706;27;46375;-69
2021/11/18 04:05:26;;;;;;;;;47.00;38.00;;;;;7.61;96.15;102658.31;5073322;27;45337;-70
2021/11/18 04:07:51;;;;;;;;;37.50;35.50;;;;;7.60;95.88;102656.53;5076679;27;45220;-69
2021/11/18 04:10:23;;;;;;;;;47.75;35.00;;;;;7.60;96.35;102660.84;5093316;27;45355;-68
2021/11/18 04:12:49;;;;;;;;;43.00;31.75;;;;;7.58;96.00;102660.81;5067221;28;45341;-71
2021/11/18 04:15:16;;;;;;;;;37.50;26.25;;;;;7.58;96.00;102668.59;5072007;28;45236;-74
2021/11/18 04:17:42;;;;;;;;;39.75;32.00;;;;;7.60;95.65;102674.66;5075641;28;45239;-73
2021/11/18 04:20:10;;;;;;;;;33.75;30.25;;;;;7.57;95.88;102665.97;5071903;27;45244;-69
2021/11/18 04:22:36;;;;;;;;;38.75;34.00;;;;;7.57;95.93;102672.00;5073831;28;46590;-70
2021/11/18 04:25:05;;;;;;;;;43.50;35.00;;;;;7.58;96.02;102678.94;5068476;28;45319;-67
2021/11/18 04:27:30;;;;;;;;;43.25;37.50;;;;;7.58;96.16;102672.88;5067127;27;45196;-69
2021/11/18 04:29:56;;;;;;;;;38.50;32.75;;;;;7.58;95.71;102673.75;5089694;27;45214;-69
2021/11/18 04:32:26;;;;;;;;;38.50;32.75;;;;;7.60;95.93;102673.78;5083825;27;45333;-69
2021/11/18 04:34:51;;;;;;;;;44.50;37.75;;;;;7.60;95.59;102682.41;5069853;28;45423;-70
2021/11/18 04:37:17;;;;;;;;;42.00;35.25;;;;;7.60;95.48;102681.53;5066973;27;45302;-72
2021/11/18 04:39:43;;;;;;;;;37.25;33.50;;;;;7.58;95.88;102678.94;5071111;27;45382;-73
2021/11/18 04:42:10;;;;;;;;;44.00;32.00;;;;;7.57;95.96;102682.38;5073303;28;47104;-73
2021/11/18 04:44:36;;;;;;;;;37.25;32.75;;;;;7.55;95.94;102704.75;5070046;28;45846;-71
2021/11/18 04:47:07;;;;;;;;;44.00;33.75;;;;;7.55;95.80;102691.81;5067192;27;45390;-77
2021/11/18 04:49:32;;;;;;;;;39.25;32.75;;;;;7.55;95.51;102688.38;5078813;27;45661;-77
2021/11/18 04:51:58;;;;;;;;;40.25;34.75;;;;;7.54;95.70;102697.84;5066151;27;46414;-75
2021/11/18 04:54:23;;;;;;;;;46.50;36.25;;;;;7.54;95.53;102705.59;5067045;27;45347;-69
2021/11/18 04:56:49;;;;;;;;;48.75;38.00;;;;;7.55;95.58;102707.34;5065056;27;46011;-77
2021/11/18 04:59:14;;;;;;;;;30.75;28.75;;;;;7.54;95.44;102708.19;5057739;28;45434;-74
2021/11/18 05:01:40;;;;;;;;;47.50;37.75;;;;;7.52;96.17;102709.88;5060806;28;46445;-74
2021/11/18 05:04:07;;;;;;;;;39.75;31.50;;;;;7.50;95.98;102711.59;5076892;28;45540;-69
2021/11/18 05:06:33;;;;;;;;;33.25;27.00;;;;;7.50;96.01;102711.59;5067139;28;45489;-74
2021/11/18 05:08:58;;;;;;;;;36.50;28.00;;;;;7.47;95.93;102706.34;5069089;27;45243;-74
2021/11/18 05:11:24;;;;;;;;;33.50;28.50;;;;;7.47;96.14;102708.06;5070112;27;46066;-68
2021/11/18 05:13:50;;;;;;;;;36.75;27.25;;;;;7.44;96.25;102701.13;5080037;27;45816;-76
2021/11/18 05:16:17;;;;;;;;;43.50;32.50;;;;;7.45;96.40;102708.06;5079379;27;45314;-74
2021/11/18 05:18:44;;;;;;;;;45.00;37.25;;;;;7.45;96.02;102708.06;5067371;27;45468;-73
2021/11/18 05:21:12;;;;;;;;;40.00;28.25;;;;;7.44;96.10;102705.44;5073411;27;46338;-72
2021/11/18 05:23:39;;;;;;;;;42.25;36.75;;;;;7.44;96.61;102711.50;5079896;27;45822;-71
2021/11/18 05:26:05;;;;;;;;;38.25;32.50;;;;;7.46;96.22;102714.09;5079448;27;45353;-69
2021/11/18 05:28:31;;;;;;;;;38.75;30.25;;;;;7.48;96.14;102713.28;5079419;27;45320;-70
2021/11/18 05:30:57;;;;;;;;;35.25;31.25;;;;;7.47;96.62;102711.53;5074419;28;46158;-70
2021/11/18 05:33:26;;;;;;;;;36.25;28.50;;;;;7.45;96.04;102702.88;5076031;28;45832;-71
2021/11/18 05:35:53;;;;;;;;;37.25;30.25;;;;;7.46;96.46;102704.63;5079336;27;45424;-71
2021/11/18 05:38:20;;;;;;;;;40.00;32.75;;;;;7.47;96.09;102714.13;5079250;27;45462;-71
2021/11/18 05:40:45;;;;;;;;;40.00;29.75;;;;;7.47;96.18;102711.53;5078905;27;45442;-71
2021/11/18 05:43:12;;;;;;;;;39.50;33.00;;;;;7.50;96.04;102721.94;5079061;27;45417;-73
2021/11/18 05:45:38;;;;;;;;;37.00;31.00;;;;;7.51;95.77;102715.91;5082515;27;45298;-73
2021/11/18 05:48:05;;;;;;;;;41.50;32.75;;;;;7.52;96.23;102712.47;5077056;28;45343;-65
2021/11/18 05:50:38;;;;;;;;;36.00;28.00;;;;;7.51;95.98;102718.50;5069291;27;46421;-64
2021/11/18 05:53:05;;;;;;;;;49.75;41.50;;;;;7.55;96.18;102719.41;5082386;27;45413;-66
2021/11/18 05:55:32;;;;;;;;;44.75;37.75;;;;;7.55;95.90;102722.88;5077665;27;45399;-66
2021/11/18 05:57:58;;;;;;;;;43.75;36.50;;;;;7.55;95.85;102722.00;5067067;28;45213;-62
2021/11/18 06:00:27;;;;;;;;;41.50;32.50;;;;;7.56;96.00;102727.19;5077153;27;46141;-61
2021/11/18 06:02:53;;;;;;;;;34.50;32.00;;;;;7.55;95.94;102729.75;5067757;27;45343;-61
2021/11/18 06:05:20;;;;;;;;;27.50;24.25;;;;;7.54;96.03;102734.06;5079196;27;45333;-61
2021/11/18 06:07:45;;;;;;;;;34.50;28.25;;;;;7.52;95.55;102735.75;5079484;27;45153;-60
2021/11/18 06:10:13;;;;;;;;;34.25;28.25;;;;;7.51;95.74;102733.16;5082154;27;45703;-67
2021/11/18 06:12:38;;;;;;;;;42.00;33.00;;;;;7.52;95.62;102737.47;5082474;27;45284;-64
2021/11/18 06:15:04;;;;;;;;;30.50;26.25;;;;;7.50;95.70;102739.16;5082294;27;45290;-71
2021/11/18 06:17:30;;;;;;;;;40.75;31.25;;;;;7.47;95.37;102739.13;5082450;27;45381;-65
2021/11/18 06:19:55;;;;;;;;;29.75;27.00;;;;;7.44;94.48;102737.34;5076575;27;45445;-67
2021/11/18 06:22:25;;;;;;;;;36.00;34.00;;;;;7.40;95.40;102740.72;5082346;27;45442;-67
2021/11/18 06:24:51;;;;;;;;;43.25;33.50;;;;;7.38;95.33;102736.34;5081898;27;45265;-64
2021/11/18 06:27:17;;;;;;;;;42.50;34.50;;;;;7.36;95.70;102746.69;5082222;27;45481;-64
2021/11/18 06:29:43;;;;;;;;;37.75;32.25;;;;;7.32;95.65;102742.31;5077101;27;46426;-75
2021/11/18 06:32:09;;;;;;;;;36.00;32.00;;;;;7.28;95.63;102748.25;5071469;27;45309;-70
2021/11/18 06:34:38;;;;;;;;;41.00;29.00;;;;;7.26;95.52;102753.41;5081796;27;45384;-70
2021/11/18 06:37:03;;;;;;;;;33.00;31.00;;;;;7.21;95.56;102756.75;5081416;27;45473;-68
2021/11/18 06:39:28;;;;;;;;;37.50;31.25;;;;;7.20;96.17;102755.00;5081306;27;45589;-61
2021/11/18 06:41:54;;;;;;;;;39.25;28.50;;;;;7.20;95.78;102757.56;5081116;27;45322;-64
2021/11/18 06:44:20;;;;;;;;;35.75;32.75;;;;;7.18;95.89;102762.72;5081614;27;45370;-64
2021/11/18 06:46:45;;;;;;;;;44.00;31.75;;;;;7.17;95.91;102755.81;5085097;27;45481;-63
2021/11/18 06:49:11;;;;;;;;;41.25;35.00;;;;;7.19;95.87;102746.38;5081118;27;45426;-62
2021/11/18 06:51:41;;;;;;;;;36.75;23.50;;;;;7.24;95.84;102759.41;5088023;27;45200;-60
2021/11/18 06:54:09;;;;;;;;;36.75;29.50;;;;;7.25;95.61;102764.59;5081568;27;45409;-61
2021/11/18 06:56:35;;;;;;;;;30.50;24.25;;;;;7.26;95.58;102758.59;5081281;27;45247;-61
2021/11/18 06:59:02;;;;;;;;;42.00;32.50;;;;;7.23;95.69;102760.25;5081623;27;45258;-61
2021/11/18 07:01:28;;;;;;;;;35.75;32.50;;;;;7.25;95.63;102771.50;5080876;27;45360;-61
2021/11/18 07:03:55;;;;;;;;;40.50;33.25;;;;;7.23;95.15;102766.28;5081834;27;45275;-60
2021/11/18 07:06:23;;;;;;;;;48.75;36.75;;;;;7.27;95.58;102769.81;5081248;27;45854;-67
2021/11/18 07:08:49;;;;;;;;;34.75;25.00;;;;;7.28;95.62;102769.81;5081179;27;46693;-62
2021/11/18 07:11:19;;;;;;;;;46.00;38.25;;;;;7.30;95.63;102775.03;5080857;27;45286;-62
2021/11/18 07:13:44;;;;;;;;;45.00;38.25;;;;;7.27;95.42;102775.84;5081271;27;45406;-62
2021/11/18 07:16:14;;;;;;;;;48.75;39.00;;;;;7.28;95.54;102777.59;5080364;27;45512;-62
2021/11/18 07:18:39;;;;;;;;;41.25;37.00;;;;;7.29;95.62;102774.16;5080097;27;46303;-62
2021/11/18 07:21:06;;;;;;;;;43.75;36.75;;;;;7.29;95.36;102771.56;5078080;27;45326;-62
2021/11/18 07:23:33;;;;;;;;;35.50;30.50;;;;;7.28;95.66;102766.38;5080084;27;45197;-61
2021/11/18 07:26:01;;;;;;;;;39.00;32.75;;;;;7.28;95.55;102772.41;5079524;27;45517;-62
2021/11/18 07:28:28;;;;;;;;;39.75;32.50;;;;;7.27;96.01;102769.81;5080305;27;46757;-61
2021/11/18 07:30:54;;;;;;;;;43.50;38.50;;;;;7.26;95.36;102761.16;5080179;27;45729;-61
2021/11/18 07:33:22;;;;;;;;;31.25;27.25;;;;;7.27;95.86;102772.38;5081046;27;45196;-61
2021/11/18 07:35:50;;;;;;;;;76.00;56.25;;;;;7.28;95.63;102767.25;5080076;27;45508;-62
2021/11/18 07:38:16;;;;;;;;;45.00;36.50;;;;;7.30;95.28;102772.44;5067861;28;45451;-62
2021/11/18 07:40:44;;;;;;;;;32.50;25.75;;;;;7.35;95.42;102760.44;5079996;27;45853;-62
2021/11/18 07:43:13;;;;;;;;;39.00;34.75;;;;;7.38;95.71;102763.09;5080692;27;45502;-62
2021/11/18 07:45:38;;;;;;;;;46.00;36.00;;;;;7.39;95.55;102767.41;5083115;27;45417;-61
2021/11/18 07:48:04;;;;;;;;;32.25;28.00;;;;;7.43;95.65;102769.25;5079954;27;46175;-61
2021/11/18 07:50:30;;;;;;;;;42.75;36.50;;;;;7.51;95.28;102761.59;5080397;27;45461;-61
2021/11/18 07:52:57;;;;;;;;;37.50;33.50;;;;;7.56;94.99;102766.00;5087293;27;45398;-61
2021/11/18 07:55:24;;;;;;;;;31.25;21.50;;;;;7.61;94.92;102764.41;5080545;27;45307;-61
2021/11/18 07:57:50;;;;;;;;;52.75;39.00;;;;;7.69;95.45;102771.41;5080605;27;46367;-61
2021/11/18 08:00:18;;;;;;;;;39.75;30.75;;;;;7.75;94.80;102774.97;5079950;27;45810;-61
2021/11/18 08:02:44;;;;;;;;;42.25;33.75;;;;;7.81;94.77;102776.81;5080702;27;45431;-61
2021/11/18 08:05:11;;;;;;;;;34.75;30.00;;;;;7.83;94.13;102781.16;5071751;27;45305;-61
2021/11/18 08:07:37;;;;;;;;;35.75;29.00;;;;;7.88;93.94;102788.97;5080346;27;45422;-61
2021/11/18 08:10:06;;;;;;;;;34.00;32.25;;;;;7.94;93.90;102791.66;5080140;27;45405;-61
2021/11/18 08:12:35;;;;;;;;;41.00;32.25;;;;;7.99;94.25;102796.91;5080296;27;45486;-61
2021/11/18 08:15:02;;;;;;;;;47.25;37.50;;;;;8.02;94.05;102786.63;5079537;27;45330;-61
2021/11/18 08:17:28;;;;;;;;;42.75;37.50;;;;;7.99;93.70;102778.78;5080334;27;46264;-61
2021/11/18 08:19:53;;;;;;;;;42.75;34.50;;;;;8.05;93.94;102786.69;5077979;27;45497;-61
2021/11/18 08:22:18;;;;;;;;;38.00;32.50;;;;;8.11;94.46;102789.34;5080481;27;45340;-61
2021/11/18 08:24:44;;;;;;;;;46.50;36.25;;;;;8.21;94.31;102783.47;5080109;27;45268;-61
2021/11/18 08:27:10;;;;;;;;;42.25;38.50;;;;;8.34;93.37;102797.50;5080304;27;46448;-62
2021/11/18 08:29:36;;;;;;;;;53.25;40.00;;;;;8.38;93.66;102784.59;5080274;27;45680;-62
2021/11/18 08:32:02;;;;;;;;;46.75;41.25;;;;;8.51;93.44;102793.44;5079401;27;45294;-61
2021/11/18 08:34:27;;;;;;;;;56.25;45.00;;;;;8.60;93.26;102788.34;5079833;27;45519;-61
2021/11/18 08:36:53;;;;;;;;;73.75;54.25;;;;;8.72;93.39;102785.06;5072716;27;47969;-61
2021/11/18 08:39:22;;;;;;;;;58.75;44.25;;;;;8.80;93.10;102797.25;5078485;27;45262;-62
2021/11/18 08:41:54;;;;;;;;;49.75;38.50;;;;;8.93;93.01;102803.50;5079896;27;45401;-61
2021/11/18 08:44:21;;;;;;;;;56.25;43.00;;;;;9.02;92.44;102801.03;5077536;27;45354;-61
2021/11/18 08:46:48;;;;;;;;;57.00;39.00;;;;;9.11;93.09;102808.91;5085590;27;46343;-61
2021/11/18 08:49:15;;;;;;;;;50.50;40.25;;;;;9.13;92.69;102802.00;5074779;27;45830;-62
2021/11/18 08:51:41;;;;;;;;;47.50;40.00;;;;;9.27;91.82;102807.34;5085234;27;45266;-61
2021/11/18 08:54:11;;;;;;;;;58.75;43.00;;;;;9.39;91.78;102810.06;5074605;27;45495;-61
2021/11/18 08:56:38;;;;;;;;;51.00;42.75;;;;;9.49;91.37;102816.25;5079448;27;46377;-61
2021/11/18 08:59:05;;;;;;;;;49.50;41.00;;;;;9.59;90.91;102809.41;5079493;27;45693;-61
2021/11/18 09:01:38;;;;;;;;;51.00;42.50;;;;;9.63;90.25;102816.38;5079263;27;45268;-61
2021/11/18 09:04:07;;;;;;;;;55.50;42.25;;;;;9.72;90.24;102811.25;5079701;27;45516;-62
2021/11/18 09:06:34;;;;;;;;;54.75;41.75;;;;;9.81;90.38;102806.19;5079754;28;45424;-62
2021/11/18 09:09:00;;;;;;;;;54.50;43.50;;;;;9.91;90.89;102800.19;5078750;27;45368;-62
2021/11/18 09:11:29;;;;;;;;;61.00;46.00;;;;;10.03;89.89;102812.41;5082800;27;45341;-62
2021/11/18 09:13:55;;;;;;;;;53.25;42.25;;;;;10.11;89.85;102809.88;5079798;27;45532;-62
2021/11/18 09:16:25;;;;;;;;;60.25;45.50;;;;;10.14;88.83;102817.69;5079073;27;46101;-62
2021/11/18 09:18:51;;;;;;;;;61.25;47.75;;;;;10.18;87.12;102819.44;5079360;27;45822;-61
2021/11/18 09:21:20;;;;;;;;;56.00;42.25;;;;;10.26;87.83;102816.09;5076989;27;45519;-61
2021/11/18 09:24:05;;;;;;;;;54.75;44.75;;;;;10.41;87.67;102814.41;5079672;27;45288;-61
2021/11/18 09:26:34;;;;;;;;;56.25;46.00;;;;;10.55;88.01;102810.19;5075482;27;46511;-61
2021/11/18 09:29:00;;;;;;;;;52.50;40.50;;;;;10.73;86.49;102817.22;5071844;28;45595;-61
2021/11/18 09:31:27;;;;;;;;;57.25;44.75;;;;;11.14;86.68;102828.69;5079433;27;45385;-61
2021/11/18 09:33:53;;;;;;;;;57.00;45.75;;;;;11.45;86.04;102829.66;5079649;27;45521;-61
2021/11/18 09:36:21;;;;;;;;;62.00;46.25;;;;;11.59;85.36;102842.69;5067367;27;46420;-61
2021/11/18 09:38:48;;;;;;;;;54.00;43.50;;;;;11.67;84.44;102837.50;5079514;27;45161;-61
2021/11/18 09:41:16;;;;;;;;;53.75;41.75;;;;;11.74;83.00;102819.28;5066575;27;45244;-61
2021/11/18 09:43:56;;;;;;;;;47.25;41.75;;;;;12.12;83.85;102823.66;5082189;27;45421;-61
2021/11/18 09:46:53;;;;;;;;;52.50;41.50;;;;;12.40;80.29;102827.97;5089565;27;46645;-61
2021/11/18 09:49:39;;;;;;;;;56.00;44.50;;;;;12.34;81.32;102819.28;5071803;27;45303;-61
2021/11/18 09:52:16;;;;;;;;;58.25;43.50;;;;;12.44;81.92;102826.25;5086802;27;45392;-61
2021/11/18 09:55:04;;;;;;;;;57.50;44.75;;;;;12.55;80.84;102828.81;5082694;27;45246;-61
2021/11/18 09:57:35;;;;;;;;;57.00;40.75;;;;;12.66;80.94;102834.88;5080081;27;45438;-61
2021/11/18 10:00:21;;;;;;;;;57.50;45.00;;;;;12.71;80.66;102826.16;5082460;27;45271;-61
2021/11/18 10:02:55;;;;;;;;;44.75;37.00;;;;;12.71;77.65;102834.00;5082668;27;45386;-62
2021/11/18 10:05:56;;;;;;;;;53.50;44.25;;;;;12.70;79.10;102837.47;5078751;27;45337;-61
2021/11/18 10:08:40;;;;;;;;;56.25;44.50;;;;;12.70;79.81;102841.81;5081909;27;46345;-61
2021/11/18 10:11:16;;;;;;;;;60.75;44.75;;;;;12.78;79.31;102837.44;5080904;27;45250;-61
2021/11/18 10:14:02;;;;;;;;;52.00;43.00;;;;;12.84;78.48;102845.28;5082403;27;45183;-61
2021/11/18 10:16:38;;;;;;;;;49.25;38.75;;;;;12.76;78.64;102852.22;5082241;27;45628;-62
2021/11/18 10:19:08;;;;;;;;;59.75;45.00;;;;;12.78;78.52;102851.34;5082142;27;45592;-62
2021/11/18 10:21:39;;;;;;;;;56.25;43.75;;;;;12.81;74.04;102855.69;5080517;27;45786;-62
2021/11/18 10:24:18;;;;;;;;;55.00;40.50;;;;;12.90;74.82;102850.47;5073141;27;45397;-62
2021/11/18 10:26:51;;;;;;;;;47.75;36.75;;;;;12.97;76.85;102859.13;5081900;27;45437;-61
2021/11/18 10:29:24;;;;;;;;;48.50;37.00;;;;;13.17;75.26;102859.03;5081487;27;45527;-61
2021/11/18 10:31:54;;;;;;;;;38.00;34.25;;;;;13.33;76.74;102856.41;5082177;27;45261;-61
2021/11/18 10:34:21;;;;;;;;;40.50;35.75;;;;;13.70;75.27;102862.28;5078060;27;45356;-63
2021/11/18 10:37:05;;;;;;;;;40.00;34.00;;;;;13.73;72.76;102861.38;5081585;27;45476;-62
2021/11/18 10:39:49;;;;;;;;;42.75;36.75;;;;;13.56;73.79;102861.50;5081517;27;45428;-62
2021/11/18 10:42:28;;;;;;;;;30.25;24.50;;;;;13.55;74.26;102864.97;5070463;27;45366;-62
2021/11/18 10:45:06;;;;;;;;;28.50;25.50;;;;;13.61;71.55;102869.28;5086493;27;45298;-60
2021/11/18 10:47:53;;;;;;;;;33.75;30.00;;;;;13.80;73.37;102862.19;5078906;27;45406;-60
2021/11/18 10:50:27;;;;;;;;;37.50;29.25;;;;;14.19;73.22;102856.66;5076175;27;46503;-60
2021/11/18 10:53:19;;;;;;;;;39.75;33.75;;;;;14.57;72.80;102853.72;5082373;27;45816;-60
2021/11/18 10:56:10;;;;;;;;;35.00;31.50;;;;;14.99;71.72;102856.75;5077592;27;45386;-61
2021/11/18 10:58:41;;;;;;;;;33.50;30.00;;;;;14.93;70.19;102861.19;5071588;27;45503;-60
2021/11/18 11:01:25;;;;;;;;;40.75;33.00;;;;;15.09;70.85;102857.50;5063540;27;46091;-59
2021/11/18 11:03:52;;;;;;;;;39.25;34.25;;;;;15.57;70.71;102860.34;5063453;28;45838;-59
2021/11/18 11:06:17;;;;;;;;;36.00;30.25;;;;;15.69;69.56;102861.09;5079902;27;45231;-59
2021/11/18 11:09:09;;;;;;;;;34.75;28.75;;;;;15.78;65.86;102862.69;5074823;28;45363;-59
2021/11/18 11:11:37;;;;;;;;;32.50;26.25;;;;;15.76;67.80;102864.47;5047298;28;45453;-59
2021/11/18 11:14:39;;;;;;;;;38.25;26.25;;;;;15.89;67.78;102852.91;5060114;28;45674;-59
2021/11/18 11:17:24;;;;;;;;;30.00;24.50;;;;;16.86;66.38;102849.47;5078454;27;45345;-59
2021/11/18 11:20:07;;;;;;;;;38.25;32.00;;;;;17.48;65.55;102849.88;5079147;27;45312;-59
2021/11/18 11:23:07;;;;;;;;;33.00;27.75;;;;;19.01;61.01;102844.19;5080969;28;45815;-59
2021/11/18 11:25:54;;;;;;;;;13.75;13.50;;;;;19.09;59.31;102843.06;5060672;28;45244;-59